Time;durP1;ratioP1;P1;durP2;ratioP2;P2;SDS_P1;SDS_P2;PMS_P1;PMS_P2;Temp;Humidity;BMP_temperature;BMP_pressure;BME280_temperature;BME280_humidity;BME280_pressure;Samples;Min_cycle;Max_cycle;Signal;HPM_P1;HPM_P2
2023/02/10 00:00:21;;;;;;;;;;;6.30;76.70;;;5.25;61.37;102479.50;5033223;28;19932;-82
2023/02/10 00:02:49;;;;;;;;;;;6.30;76.80;;;5.26;61.71;102481.19;5025429;28;19936;-82
2023/02/10 00:05:16;;;;;;;;;;;6.30;77.10;;;5.26;61.45;102479.38;5042602;28;19925;-82
2023/02/10 00:07:43;;;;;;;;;;;6.30;77.10;;;5.27;61.52;102485.50;5039973;28;20316;-82
2023/02/10 00:10:10;;;;;;;;;;;6.30;77.00;;;5.26;61.62;102479.38;5033505;28;20317;-82
2023/02/10 00:12:37;;;;;;;;;;;6.30;77.20;;;5.26;61.69;102489.94;5029261;28;19936;-82
2023/02/10 00:15:05;;;;;;;;;;;6.30;77.10;;;5.27;61.42;102490.78;5030494;28;19933;-82
2023/02/10 00:17:32;;;;;;;;;;;6.30;77.10;;;5.28;61.83;102490.69;5029762;28;19927;-82
2023/02/10 00:20:00;;;;;;;;;;;6.30;77.20;;;5.30;61.85;102488.75;5030425;28;20289;-82
2023/02/10 00:22:27;;;;;;;;;;;6.30;77.20;;;5.26;61.78;102497.06;5029303;28;20392;-82
2023/02/10 00:24:54;;;;;;;;;;;6.30;77.20;;;5.27;61.82;102496.06;5030269;28;19928;-82
2023/02/10 00:27:23;;;;;;;;;;;6.30;77.40;;;5.28;61.84;102495.97;5030112;28;20593;-82
2023/02/10 00:29:51;;;;;;;;;;;6.30;77.40;;;5.28;61.60;102495.13;5028582;28;20416;-82
2023/02/10 00:32:18;;;;;;;;;;;6.30;77.30;;;5.31;61.91;102497.50;5029673;28;20365;-82
2023/02/10 00:34:45;;;;;;;;;;;6.40;77.40;;;5.30;61.51;102495.84;5028568;28;20515;-82
2023/02/10 00:37:14;;;;;;;;;;;6.40;77.20;;;5.29;61.63;102494.16;5028501;28;19929;-82
2023/02/10 00:39:41;;;;;;;;;;;6.30;77.50;;;5.31;61.69;102489.56;5029762;28;19929;-82
2023/02/10 00:42:08;;;;;;;;;;;6.40;77.50;;;5.30;62.13;102493.19;5027702;28;20472;-83
2023/02/10 00:44:35;;;;;;;;;;;6.30;77.40;;;5.28;61.99;102495.13;5032927;28;19929;-82
2023/02/10 00:47:03;;;;;;;;;;;6.30;77.60;;;5.30;62.03;102493.19;5039110;28;19928;-82
2023/02/10 00:49:30;;;;;;;;;;;6.30;77.80;;;5.31;62.01;102495.69;5038037;28;20019;-82
2023/02/10 00:51:58;;;;;;;;;;;6.30;77.60;;;5.31;61.99;102495.69;5028818;28;19936;-82
2023/02/10 00:54:27;;;;;;;;;;;6.30;77.70;;;5.31;62.10;102498.34;5029947;28;19929;-82
2023/02/10 00:56:54;;;;;;;;;;;6.40;77.60;;;5.32;62.20;102500.06;5040165;28;19952;-82
2023/02/10 00:59:21;;;;;;;;;;;6.40;77.60;;;5.33;62.22;102492.94;5039149;28;19928;-82
2023/02/10 01:01:48;;;;;;;;;;;6.40;77.60;;;5.34;61.98;102491.97;5031844;28;19931;-82
2023/02/10 01:04:15;;;;;;;;;;;6.40;77.40;;;5.35;62.01;102496.28;5028025;28;20012;-82
2023/02/10 01:06:42;;;;;;;;;;;6.50;77.70;;;5.35;62.43;102499.78;5040510;28;19929;-82
2023/02/10 01:09:09;;;;;;;;;;;6.40;77.50;;;5.36;62.48;102497.97;5038718;28;19936;-82
2023/02/10 01:11:38;;;;;;;;;;;6.50;77.60;;;5.34;62.39;102500.75;5026953;28;20404;-81
2023/02/10 01:14:05;;;;;;;;;;;6.50;77.80;;;5.35;62.20;102504.22;5029158;28;19929;-82
2023/02/10 01:16:32;;;;;;;;;;;6.50;77.80;;;5.34;62.22;102499.91;5026111;28;20416;-82
2023/02/10 01:18:59;;;;;;;;;;;6.50;77.80;;;5.34;62.20;102505.22;5010725;28;19930;-82
2023/02/10 01:21:27;;;;;;;;;;;6.40;77.60;;;5.34;62.39;102507.84;5016928;28;20302;-82
2023/02/10 01:23:54;;;;;;;;;;;6.40;77.90;;;5.32;62.73;102509.75;5031609;28;19948;-82
2023/02/10 01:26:21;;;;;;;;;;;6.40;78.00;;;5.32;62.73;102508.00;5031342;28;20391;-83
2023/02/10 01:28:49;;;;;;;;;;;6.40;78.00;;;5.33;62.63;102507.00;5033461;28;19929;-82
2023/02/10 01:31:17;;;;;;;;;;;6.40;77.90;;;5.34;62.25;102515.78;5032925;28;19936;-83
2023/02/10 01:33:44;;;;;;;;;;;6.40;77.80;;;5.34;62.42;102521.09;5032337;28;19929;-83
2023/02/10 01:36:14;;;;;;;;;;;6.50;78.00;;;5.34;62.75;102518.44;5031723;28;19929;-82
2023/02/10 01:38:42;;;;;;;;;;;6.50;78.20;;;5.33;62.75;102519.41;5033130;28;19932;-82
2023/02/10 01:41:09;;;;;;;;;;;6.50;78.10;;;5.33;62.68;102520.25;5031458;28;19969;-82
2023/02/10 01:43:56;;;;;;;;;;;6.40;77.90;;;5.31;62.76;102524.81;5030632;28;19929;-82
2023/02/10 01:46:23;;;;;;;;;;;6.50;78.20;;;5.31;62.89;102522.16;5042518;28;19928;-82
2023/02/10 01:48:51;;;;;;;;;;;6.40;78.20;;;5.33;62.65;102528.19;5040599;28;19925;-82
2023/02/10 01:51:19;;;;;;;;;;;6.40;78.20;;;5.34;62.62;102534.31;5036222;28;19929;-82
2023/02/10 01:53:46;;;;;;;;;;;6.40;78.20;;;5.33;62.89;102530.81;5032554;28;19937;-82
2023/02/10 01:56:15;;;;;;;;;;;6.40;78.20;;;5.34;62.57;102527.22;5041362;28;19929;-82
2023/02/10 01:58:44;;;;;;;;;;;6.40;78.10;;;5.32;62.82;102542.38;5040887;28;20384;-83
2023/02/10 02:01:12;;;;;;;;;;;6.50;78.20;;;5.32;62.83;102541.50;5038257;28;19931;-83
2023/02/10 02:03:41;;;;;;;;;;;6.50;78.20;;;5.31;62.77;102539.84;5030602;28;19948;-82
2023/02/10 02:06:09;;;;;;;;;;;6.40;78.00;;;5.31;62.87;102538.03;5040334;28;19935;-82
2023/02/10 02:08:36;;;;;;;;;;;6.50;78.30;;;5.32;63.15;102538.88;5026501;28;20393;-83
2023/02/10 02:11:16;;;;;;;;;;;6.50;78.40;;;5.31;63.21;102538.03;5036507;28;19929;-82
2023/02/10 02:14:26;;;;;;;;;;;6.50;78.40;;;5.27;63.77;102541.06;5028986;28;19935;-82
2023/02/10 02:17:06;;;;;;;;;;;6.40;78.80;;;5.32;63.25;102545.03;4946788;28;19930;-82
2023/02/10 02:23:29;;;;;;;;;;;6.40;79.00;;;5.33;63.42;102540.56;4997328;28;19929;-82
2023/02/10 02:26:22;;;;;;;;;;;6.40;79.10;;;5.33;63.70;102553.81;5038558;28;19936;-82
2023/02/10 02:32:34;;;;;;;;;;;6.40;79.20;;;5.33;63.51;102554.63;5033225;28;20600;-82
2023/02/10 02:35:05;;;;;;;;;;;6.40;79.10;;;5.34;63.71;102553.66;5037629;28;19935;-82
2023/02/10 02:37:34;;;;;;;;;;;6.50;79.40;;;5.34;63.47;102555.47;5038934;28;20031;-82
2023/02/10 02:40:02;;;;;;;;;;;6.40;79.20;;;5.33;63.34;102556.44;5039764;28;20368;-82
2023/02/10 02:42:31;;;;;;;;;;;6.40;79.20;;;5.32;63.48;102549.44;5030537;28;19983;-82
2023/02/10 02:45:01;;;;;;;;;;;6.40;79.10;;;5.30;63.08;102554.03;5026896;28;20030;-83
2023/02/10 02:48:12;;;;;;;;;;;6.40;78.80;;;5.26;63.32;102549.97;5036941;28;20128;-82
2023/02/10 02:50:46;;;;;;;;;;;6.40;78.70;;;5.22;63.04;102541.47;5042612;28;19925;-82
2023/02/10 02:53:25;;;;;;;;;;;6.30;78.60;;;5.23;63.04;102561.66;5031224;28;19936;-82
2023/02/10 02:56:00;;;;;;;;;;;6.30;78.50;;;5.20;62.82;102559.22;5038626;28;19929;-82
2023/02/10 02:58:34;;;;;;;;;;;6.30;78.20;;;5.18;62.83;102555.06;5040495;28;19963;-82
2023/02/10 03:01:05;;;;;;;;;;;6.30;78.20;;;5.16;62.81;102557.81;5037301;28;19929;-82
2023/02/10 03:03:36;;;;;;;;;;;6.40;78.20;;;5.14;62.80;102550.00;5031198;28;20028;-82
2023/02/10 03:08:41;;;;;;;;;;;6.30;78.20;;;5.12;62.63;102554.59;4985714;28;19937;-77
2023/02/10 03:11:08;;;;;;;;;;;6.30;78.20;;;5.11;62.79;102546.75;4986574;28;20013;-77
2023/02/10 03:13:35;;;;;;;;;;;6.30;78.20;;;5.11;62.48;102544.94;4995031;28;19929;-77
2023/02/10 03:16:02;;;;;;;;;;;6.30;78.00;;;5.10;62.82;102529.22;4995452;28;20297;-77
2023/02/10 03:18:29;;;;;;;;;;;6.30;78.10;;;5.07;63.01;102535.56;4972583;28;19930;-77
2023/02/10 03:20:57;;;;;;;;;;;6.20;78.20;;;5.06;63.06;102518.03;4979707;28;19931;-77
2023/02/10 03:23:24;;;;;;;;;;;6.20;78.30;;;5.05;63.14;102521.66;4990770;28;19929;-77
2023/02/10 03:25:51;;;;;;;;;;;6.20;78.40;;;5.06;62.98;102525.97;4991426;28;20382;-77
2023/02/10 03:28:18;;;;;;;;;;;6.20;78.40;;;5.08;63.15;102520.56;4984434;28;20607;-77
2023/02/10 03:30:50;;;;;;;;;;;6.20;78.40;;;5.05;62.92;102519.00;4977155;28;19929;-77
2023/02/10 03:33:17;;;;;;;;;;;6.20;78.60;;;5.06;63.00;102511.91;4974860;28;20382;-77
2023/02/10 03:35:45;;;;;;;;;;;6.20;78.60;;;5.01;63.00;102514.94;4972177;28;19985;-77
2023/02/10 03:38:14;;;;;;;;;;;6.20;78.60;;;5.03;63.24;102528.88;4972096;28;19927;-77
2023/02/10 03:40:41;;;;;;;;;;;6.20;78.70;;;5.02;63.18;102529.81;4979805;28;20418;-77
2023/02/10 03:43:08;;;;;;;;;;;6.20;78.60;;;5.02;63.18;102535.09;4979807;28;20414;-77
2023/02/10 03:45:35;;;;;;;;;;;6.20;78.60;;;5.01;63.04;102525.50;4963924;28;19930;-77
2023/02/10 03:48:02;;;;;;;;;;;6.10;78.80;;;5.01;63.25;102524.66;4962099;28;19932;-77
2023/02/10 03:50:29;;;;;;;;;;;6.10;78.70;;;4.98;62.97;102533.69;4979544;28;19980;-77
2023/02/10 03:52:56;;;;;;;;;;;6.10;78.50;;;4.97;62.94;102533.81;4986431;28;19937;-77
2023/02/10 03:55:24;;;;;;;;;;;6.10;78.30;;;4.94;62.61;102532.25;4981130;28;19930;-77
2023/02/10 03:57:51;;;;;;;;;;;6.10;78.20;;;4.90;62.82;102531.66;4970239;28;19938;-77
2023/02/10 04:00:18;;;;;;;;;;;6.10;78.00;;;4.89;62.58;102537.06;4971672;28;20390;-77
2023/02/10 04:02:45;;;;;;;;;;;6.10;77.80;;;4.90;62.67;102539.59;4967819;28;19930;-77
2023/02/10 04:05:12;;;;;;;;;;;6.10;77.80;;;4.87;62.15;102545.13;4960096;28;20559;-77
2023/02/10 04:07:39;;;;;;;;;;;6.10;77.60;;;4.80;62.10;102541.28;4970470;28;19930;-77
2023/02/10 04:10:07;;;;;;;;;;;6.10;77.40;;;4.79;62.38;102542.25;4966690;28;20318;-77
2023/02/10 04:12:35;;;;;;;;;;;6.10;77.30;;;4.76;61.93;102539.84;4984788;28;19985;-77
2023/02/10 04:15:03;;;;;;;;;;;6.00;77.00;;;4.73;62.32;102545.38;4969309;28;19926;-77
2023/02/10 04:17:30;;;;;;;;;;;6.00;76.90;;;4.69;61.75;102543.97;4969781;28;19939;-77
2023/02/10 04:19:56;;;;;;;;;;;6.10;76.90;;;4.67;61.95;102545.84;4966636;28;19945;-77
2023/02/10 04:22:23;;;;;;;;;;;6.00;76.80;;;4.65;62.43;102540.72;4987642;28;19937;-78
2023/02/10 04:24:50;;;;;;;;;;;6.00;76.90;;;4.67;62.33;102537.94;4970464;28;19936;-77
2023/02/10 04:27:17;;;;;;;;;;;5.90;76.90;;;4.65;61.88;102542.50;4969065;28;20375;-77
2023/02/10 04:29:46;;;;;;;;;;;5.90;76.90;;;4.62;61.93;102546.22;4969692;28;19929;-77
2023/02/10 04:32:12;;;;;;;;;;;5.80;76.70;;;4.61;61.90;102533.13;4990830;28;19937;-77
2023/02/10 04:34:39;;;;;;;;;;;5.90;76.80;;;4.59;61.81;102541.19;4967091;28;19927;-78
2023/02/10 04:37:06;;;;;;;;;;;5.90;76.80;;;4.59;61.88;102548.28;4970736;28;19937;-78
2023/02/10 04:39:33;;;;;;;;;;;5.90;76.70;;;4.61;62.01;102554.28;4976753;28;19934;-78
2023/02/10 04:42:00;;;;;;;;;;;5.90;76.70;;;4.58;62.08;102559.78;4978368;28;20280;-77
2023/02/10 04:44:27;;;;;;;;;;;5.90;76.80;;;4.57;61.67;102552.84;4969621;28;19937;-78
2023/02/10 04:46:56;;;;;;;;;;;6.00;76.80;;;4.57;61.49;102548.38;4962340;28;19937;-77
2023/02/10 04:49:22;;;;;;;;;;;5.80;76.60;;;4.57;61.49;102551.03;4978954;28;19925;-77
2023/02/10 04:51:50;;;;;;;;;;;5.80;76.40;;;4.52;61.57;102545.25;4981781;28;19933;-77
2023/02/10 04:54:17;;;;;;;;;;;5.80;76.40;;;4.52;61.65;102553.19;4962578;28;19930;-77
2023/02/10 04:56:44;;;;;;;;;;;5.80;76.40;;;4.51;61.86;102548.88;4967467;28;20029;-77
2023/02/10 04:59:10;;;;;;;;;;;5.80;76.60;;;4.51;61.83;102551.53;4981898;28;19934;-77
2023/02/10 05:01:38;;;;;;;;;;;5.80;76.80;;;4.49;62.19;102552.59;4971815;28;19933;-78
2023/02/10 05:04:06;;;;;;;;;;;5.70;77.20;;;4.49;62.39;102545.53;4961987;28;20613;-78
2023/02/10 05:06:33;;;;;;;;;;;5.70;77.20;;;4.49;62.31;102557.88;4960445;28;19956;-78
2023/02/10 05:09:00;;;;;;;;;;;5.70;77.30;;;4.52;62.12;102547.06;4973465;28;19926;-78
2023/02/10 05:11:27;;;;;;;;;;;5.70;77.40;;;4.51;62.76;102540.13;4981924;28;20639;-78
2023/02/10 05:13:54;;;;;;;;;;;5.70;77.80;;;4.51;62.81;102548.88;4967336;28;20393;-79
2023/02/10 05:16:21;;;;;;;;;;;5.70;77.90;;;4.53;62.96;102546.94;4968568;28;20407;-79
2023/02/10 05:18:48;;;;;;;;;;;5.70;77.90;;;4.52;63.12;102542.63;4978729;28;20306;-79
2023/02/10 05:21:16;;;;;;;;;;;5.70;78.20;;;4.55;62.38;102552.97;4987691;28;19929;-79
2023/02/10 05:23:43;;;;;;;;;;;5.70;78.00;;;4.55;62.58;102552.97;4989943;28;19926;-79
2023/02/10 05:26:10;;;;;;;;;;;5.70;77.90;;;4.57;62.55;102545.75;4990021;28;19937;-78
2023/02/10 05:28:37;;;;;;;;;;;5.70;78.00;;;4.59;62.56;102554.41;4978731;28;19934;-79
2023/02/10 05:31:06;;;;;;;;;;;5.70;78.10;;;4.57;62.69;102556.31;4985595;28;19930;-79
2023/02/10 05:33:34;;;;;;;;;;;5.70;78.00;;;4.57;62.39;102574.81;4990451;28;19925;-79
2023/02/10 05:36:01;;;;;;;;;;;5.70;77.80;;;4.54;62.58;102576.84;4989696;28;19981;-79
2023/02/10 05:38:29;;;;;;;;;;;5.70;77.80;;;4.48;62.46;102578.16;4979951;28;19941;-79
2023/02/10 05:40:56;;;;;;;;;;;5.70;77.80;;;4.50;62.47;102588.63;4970900;28;19930;-79
2023/02/10 05:43:23;;;;;;;;;;;5.70;77.80;;;4.46;63.08;102588.03;4982528;28;19984;-79
2023/02/10 05:45:50;;;;;;;;;;;5.70;78.00;;;4.49;62.88;102586.94;4962766;28;19930;-79
2023/02/10 05:48:17;;;;;;;;;;;5.70;78.00;;;4.47;62.63;102588.88;4970432;28;19937;-79
2023/02/10 05:50:43;;;;;;;;;;;5.80;78.00;;;4.48;62.97;102590.53;4970044;28;20315;-80
2023/02/10 05:53:14;;;;;;;;;;;5.70;78.20;;;4.49;62.95;102587.81;4957773;28;19938;-77
2023/02/10 05:55:42;;;;;;;;;;;5.70;78.30;;;4.52;63.31;102592.00;4960769;28;19931;-76
2023/02/10 05:58:09;;;;;;;;;;;5.70;78.20;;;4.51;63.36;102595.59;4962918;28;19933;-76
2023/02/10 06:00:36;;;;;;;;;;;5.70;78.60;;;4.55;63.50;102592.59;4974744;28;20402;-77
2023/02/10 06:03:03;;;;;;;;;;;5.70;78.80;;;4.56;63.57;102599.56;4976556;28;19930;-77
2023/02/10 06:05:30;;;;;;;;;;;5.70;78.70;;;4.54;63.44;102590.91;4968957;28;19941;-76
2023/02/10 06:07:57;;;;;;;;;;;5.70;78.90;;;4.54;63.67;102601.50;4963142;28;19937;-77
2023/02/10 06:10:24;;;;;;;;;;;5.70;79.40;;;4.56;64.17;102593.44;4980756;28;19933;-77
2023/02/10 06:12:52;;;;;;;;;;;5.70;79.60;;;4.60;64.31;102594.88;4979028;28;19926;-77
2023/02/10 06:15:19;;;;;;;;;;;5.70;79.80;;;4.61;64.54;102597.41;4967160;28;20294;-77
2023/02/10 06:17:46;;;;;;;;;;;5.70;80.20;;;4.65;64.52;102595.38;4962176;28;20313;-77
2023/02/10 06:20:13;;;;;;;;;;;5.70;80.20;;;4.62;65.05;102595.59;4979851;28;19936;-77
2023/02/10 06:22:40;;;;;;;;;;;5.70;80.60;;;4.63;65.53;102600.75;4965496;28;20518;-77
2023/02/10 06:25:07;;;;;;;;;;;5.70;81.10;;;4.61;65.94;102607.97;4988777;28;19930;-77
2023/02/10 06:27:34;;;;;;;;;;;5.70;81.80;;;4.63;66.00;102610.47;4988941;28;20371;-77
2023/02/10 06:30:02;;;;;;;;;;;5.70;81.60;;;4.63;65.71;102611.31;4966254;28;19941;-77
2023/02/10 06:32:29;;;;;;;;;;;5.70;81.60;;;4.66;65.84;102618.19;4969713;28;20280;-77
2023/02/10 06:34:56;;;;;;;;;;;5.70;81.50;;;4.65;65.43;102617.34;4979832;28;19930;-77
2023/02/10 06:37:24;;;;;;;;;;;5.70;81.60;;;4.68;65.93;102621.53;4979789;28;20398;-76
2023/02/10 06:39:51;;;;;;;;;;;5.70;81.70;;;4.68;66.37;102620.69;4961905;28;20448;-77
2023/02/10 06:42:17;;;;;;;;;;;5.80;82.00;;;4.68;66.13;102621.53;4962726;28;19930;-77
2023/02/10 06:44:44;;;;;;;;;;;5.70;81.80;;;4.68;66.10;102620.69;4975748;28;19932;-79
2023/02/10 06:47:13;;;;;;;;;;;5.80;81.80;;;4.68;66.07;102633.91;4980367;28;19952;-78
2023/02/10 06:49:40;;;;;;;;;;;5.80;81.70;;;4.69;65.82;102625.06;4960459;28;19933;-78
2023/02/10 06:52:07;;;;;;;;;;;5.80;81.60;;;4.68;65.70;102631.28;4963774;28;19941;-78
2023/02/10 06:54:33;;;;;;;;;;;5.80;81.40;;;4.67;65.63;102627.78;4974530;28;19937;-77
2023/02/10 06:57:00;;;;;;;;;;;5.80;81.40;;;4.64;66.02;102626.25;4985390;28;19930;-83
2023/02/10 06:59:27;;;;;;;;;;;5.80;81.60;;;4.65;65.84;102625.28;4964266;28;19926;-80
2023/02/10 07:02:00;;;;;;;;;;;5.80;81.70;;;4.67;66.12;102622.50;4971375;28;19926;-80
2023/02/10 07:04:28;;;;;;;;;;;5.80;81.70;;;4.67;65.79;102611.94;4965000;28;19956;-78
2023/02/10 07:06:55;;;;;;;;;;;5.80;81.80;;;4.66;65.82;102612.91;4972556;28;20362;-78
2023/02/10 07:09:22;;;;;;;;;;;5.70;82.00;;;4.63;66.49;102606.03;4968785;28;19930;-79
2023/02/10 07:11:49;;;;;;;;;;;5.70;82.20;;;4.64;66.60;102618.31;4970629;28;19926;-79
2023/02/10 07:14:17;;;;;;;;;;;5.70;82.40;;;4.67;66.32;102611.94;4979571;28;19930;-79
2023/02/10 07:16:44;;;;;;;;;;;5.80;82.20;;;4.67;66.12;102619.84;4985080;28;19937;-79
2023/02/10 07:19:11;;;;;;;;;;;5.80;82.10;;;4.69;66.54;102617.13;4990252;28;19936;-79
2023/02/10 07:21:39;;;;;;;;;;;5.80;82.20;;;4.70;66.15;102611.72;4972524;28;19926;-78
2023/02/10 07:24:07;;;;;;;;;;;5.80;82.10;;;4.68;66.25;102615.41;4988198;28;19934;-79
2023/02/10 07:26:34;;;;;;;;;;;5.80;82.20;;;4.72;66.19;102622.16;4983682;28;19930;-78
2023/02/10 07:29:01;;;;;;;;;;;5.80;82.30;;;4.72;66.21;102619.50;4981551;28;19966;-78
2023/02/10 07:31:28;;;;;;;;;;;5.80;82.20;;;4.72;66.52;102620.34;4972620;28;20039;-77
2023/02/10 07:33:55;;;;;;;;;;;5.80;82.20;;;4.75;66.56;102629.84;4971171;28;19934;-79
2023/02/10 07:36:22;;;;;;;;;;;5.80;82.20;;;4.69;66.91;102630.34;4970096;28;19930;-79
2023/02/10 07:38:50;;;;;;;;;;;5.80;82.50;;;4.72;66.72;102616.88;4971928;28;19941;-79
2023/02/10 07:41:17;;;;;;;;;;;5.80;82.50;;;4.73;66.59;102624.66;4971973;28;20025;-79
2023/02/10 07:43:44;;;;;;;;;;;5.80;82.50;;;4.76;66.55;102628.88;4970492;28;19930;-79
2023/02/10 07:46:16;;;;;;;;;;;5.80;82.40;;;4.76;66.85;102628.88;4990906;28;19950;-79
2023/02/10 07:48:43;;;;;;;;;;;5.80;82.60;;;4.76;66.69;102628.88;4974435;28;19936;-78
2023/02/10 07:51:10;;;;;;;;;;;5.80;82.50;;;4.78;66.84;102629.59;4968978;28;19927;-78
2023/02/10 07:53:37;;;;;;;;;;;5.80;82.50;;;4.80;66.69;102625.03;4968569;28;19973;-79
2023/02/10 07:56:06;;;;;;;;;;;5.90;82.70;;;4.80;66.84;102630.34;4967679;28;19957;-79
2023/02/10 07:58:33;;;;;;;;;;;5.90;82.60;;;4.80;66.40;102632.97;4968706;28;20024;-79
2023/02/10 08:01:00;;;;;;;;;;;5.90;82.70;;;4.82;66.79;102631.88;4968972;28;19933;-78
2023/02/10 08:03:27;;;;;;;;;;;5.90;82.70;;;4.86;66.44;102643.06;4972802;28;20383;-78
2023/02/10 08:05:54;;;;;;;;;;;5.90;82.60;;;4.85;66.96;102638.75;4968525;28;19930;-78
2023/02/10 08:08:21;;;;;;;;;;;5.90;82.60;;;4.86;67.10;102643.06;4967357;28;20488;-78
2023/02/10 08:10:48;;;;;;;;;;;5.90;82.90;;;4.88;66.57;102642.00;4967234;28;19938;-78
2023/02/10 08:13:16;;;;;;;;;;;5.90;82.80;;;4.87;66.89;102644.72;4970151;28;19965;-78
2023/02/10 08:15:43;;;;;;;;;;;5.90;83.00;;;4.87;67.26;102644.72;4969929;28;19937;-79
2023/02/10 08:18:10;;;;;;;;;;;5.90;83.10;;;4.83;67.38;102649.44;4968378;28;19926;-79
2023/02/10 08:20:37;;;;;;;;;;;5.90;83.30;;;4.85;67.73;102652.78;4966381;28;19937;-79
2023/02/10 08:23:04;;;;;;;;;;;5.90;83.50;;;4.88;67.73;102657.84;4970383;28;20045;-79
2023/02/10 08:25:31;;;;;;;;;;;5.90;83.70;;;4.87;67.45;102653.50;4969670;28;20306;-79
2023/02/10 08:27:59;;;;;;;;;;;5.90;83.50;;;4.84;67.69;102656.41;4968165;28;19970;-78
2023/02/10 08:30:27;;;;;;;;;;;5.90;83.70;;;4.81;67.75;102651.34;4970743;28;19949;-79
2023/02/10 08:32:54;;;;;;;;;;;5.90;83.60;;;4.82;67.74;102653.03;4969431;28;19936;-79
2023/02/10 08:35:21;;;;;;;;;;;5.90;83.70;;;4.77;68.10;102657.81;4965848;28;19934;-79
2023/02/10 08:37:48;;;;;;;;;;;5.80;83.50;;;4.82;67.86;102652.19;4968475;28;20357;-79
2023/02/10 08:40:15;;;;;;;;;;;5.90;83.70;;;4.84;67.66;102666.97;4971084;28;19930;-79
2023/02/10 08:42:42;;;;;;;;;;;5.90;83.50;;;4.86;67.53;102658.91;4962926;28;20314;-79
2023/02/10 08:45:09;;;;;;;;;;;6.10;83.50;;;4.86;67.65;102658.91;4967972;28;19961;-79
2023/02/10 08:47:38;;;;;;;;;;;5.90;83.50;;;4.84;67.71;102663.50;4969257;28;19976;-79
2023/02/10 08:50:05;;;;;;;;;;;5.90;83.50;;;4.74;67.96;102660.72;4965915;28;19937;-79
2023/02/10 08:52:33;;;;;;;;;;;5.90;83.50;;;4.78;67.87;102663.94;4966786;28;19930;-79
2023/02/10 08:55:01;;;;;;;;;;;5.90;83.60;;;4.76;67.42;102658.78;4966704;28;19937;-79
2023/02/10 08:57:28;;;;;;;;;;;5.90;83.50;;;4.74;67.43;102667.81;4968185;28;19934;-79
2023/02/10 08:59:55;;;;;;;;;;;5.90;83.50;;;4.72;67.63;102667.91;4969321;28;20296;-79
2023/02/10 09:02:22;;;;;;;;;;;5.80;83.60;;;4.76;67.54;102679.09;4966991;28;19930;-79
2023/02/10 09:04:50;;;;;;;;;;;5.90;83.70;;;4.76;67.58;102671.16;4967472;28;20205;-79
2023/02/10 09:07:17;;;;;;;;;;;5.90;83.80;;;4.73;68.29;102674.88;4968512;28;19938;-79
2023/02/10 09:09:47;;;;;;;;;;;5.90;83.80;;;4.77;67.94;102671.03;4970659;28;19938;-79
2023/02/10 09:12:14;;;;;;;;;;;5.90;83.90;;;4.73;68.40;102672.25;4964458;28;20413;-79
2023/02/10 09:14:41;;;;;;;;;;;5.90;84.20;;;4.75;68.57;102682.72;4980144;28;19933;-79
2023/02/10 09:17:09;;;;;;;;;;;5.90;84.30;;;4.79;69.01;102685.00;4968776;28;19938;-79
2023/02/10 09:19:36;;;;;;;;;;;5.90;84.50;;;4.78;69.24;102688.63;4984280;28;20298;-79
2023/02/10 09:22:04;;;;;;;;;;;5.90;84.60;;;4.80;69.25;102688.47;4972247;28;19930;-79
2023/02/10 09:24:31;;;;;;;;;;;5.90;85.10;;;4.82;69.17;102687.38;4971057;28;20020;-79
2023/02/10 09:26:58;;;;;;;;;;;5.90;85.10;;;4.87;68.91;102692.31;4978629;28;20362;-78
2023/02/10 09:29:26;;;;;;;;;;;5.90;85.00;;;4.90;68.98;102700.03;4966717;28;19930;-78
2023/02/10 09:31:53;;;;;;;;;;;6.00;85.10;;;4.94;69.52;102698.00;4964391;28;19930;-78
2023/02/10 09:34:20;;;;;;;;;;;6.00;85.40;;;4.93;69.76;102696.28;4964849;28;19930;-78
2023/02/10 09:36:47;;;;;;;;;;;6.00;85.20;;;4.97;69.68;102709.16;4969312;28;20387;-78
2023/02/10 09:39:15;;;;;;;;;;;6.00;85.50;;;4.94;69.87;102708.56;4982160;22;20314;-76
2023/02/10 09:41:51;;;;;;;;;;;6.00;85.30;;;4.91;69.52;102707.00;4980788;28;20024;-76
2023/02/10 09:44:20;;;;;;;;;;;6.00;85.50;;;4.92;70.30;102706.03;4988745;28;20046;-76
2023/02/10 09:47:22;;;;;;;;;;;6.00;85.70;;;4.98;69.63;102704.69;4991118;28;19930;-76
2023/02/10 09:49:59;;;;;;;;;;;6.00;85.50;;;5.02;70.30;102708.78;5001715;28;20305;-76
2023/02/10 09:52:37;;;;;;;;;;;6.10;86.10;;;5.02;70.20;102703.50;4988870;28;19930;-76
2023/02/10 09:55:13;;;;;;;;;;;6.10;86.00;;;5.03;70.01;102711.34;4994045;28;19944;-78
2023/02/10 09:57:43;;;;;;;;;;;6.10;86.10;;;5.08;70.03;102708.34;4999917;28;19932;-77
2023/02/10 10:00:18;;;;;;;;;;;6.10;85.90;;;5.11;70.23;102700.97;4996746;28;19930;-77
2023/02/10 10:02:50;;;;;;;;;;;6.20;85.70;;;5.14;69.66;102697.28;4993043;28;19936;-75
2023/02/10 10:05:20;;;;;;;;;;;6.20;85.60;;;5.15;69.83;102691.84;4992870;28;19926;-76
2023/02/10 10:07:50;;;;;;;;;;;6.20;85.50;;;5.16;69.30;102692.69;4973507;28;19925;-76
2023/02/10 10:10:24;;;;;;;;;;;6.20;85.20;;;5.19;69.78;102678.41;4995916;28;19926;-75
2023/02/10 10:12:51;;;;;;;;;;;6.20;85.70;;;5.19;70.17;102679.25;4997599;28;19930;-75
2023/02/10 10:15:19;;;;;;;;;;;6.30;85.90;;;5.19;69.92;102688.97;4994537;28;19930;-75
2023/02/10 10:17:58;;;;;;;;;;;6.20;85.70;;;5.20;69.79;102688.00;4992995;28;19940;-76
2023/02/10 10:20:48;;;;;;;;;;;6.30;85.60;;;5.21;69.42;102697.63;4985403;28;19936;-76
2023/02/10 10:23:23;;;;;;;;;;;6.30;85.30;;;5.24;69.84;102686.81;4992671;28;19929;-76
2023/02/10 10:26:15;;;;;;;;;;;6.30;85.50;;;5.25;69.43;102697.25;4979004;28;19925;-77
2023/02/10 10:28:59;;;;;;;;;;;6.30;85.30;;;5.27;69.05;102692.72;4993009;28;19932;-77
2023/02/10 10:31:29;;;;;;;;;;;6.40;85.00;;;5.32;69.23;102703.78;4975030;28;19934;-78
2023/02/10 10:33:59;;;;;;;;;;;6.40;85.20;;;5.34;69.64;102703.63;4993302;28;19933;-77
2023/02/10 10:36:32;;;;;;;;;;;6.40;85.20;;;5.35;69.44;102711.44;4996186;28;19936;-77
2023/02/10 10:39:01;;;;;;;;;;;6.40;85.10;;;5.38;69.36;102700.63;4996030;28;19956;-76
2023/02/10 10:41:32;;;;;;;;;;;6.40;85.30;;;5.39;69.84;102696.16;4993562;28;20028;-76
2023/02/10 10:43:59;;;;;;;;;;;6.50;85.40;;;5.43;69.55;102702.91;4991684;28;20048;-76
2023/02/10 10:46:29;;;;;;;;;;;6.50;85.60;;;5.45;69.62;102698.31;4995968;28;19934;-76
2023/02/10 10:48:56;;;;;;;;;;;6.50;85.50;;;5.43;69.77;102706.38;4991589;28;20092;-76
2023/02/10 10:51:24;;;;;;;;;;;6.60;85.50;;;5.49;70.13;102707.69;4991793;28;20310;-76
2023/02/10 10:53:52;;;;;;;;;;;6.50;85.70;;;5.49;69.99;102698.94;4991747;28;19984;-77
2023/02/10 10:56:29;;;;;;;;;;;6.60;85.60;;;5.54;69.76;102700.22;5001021;28;19936;-76
2023/02/10 10:58:58;;;;;;;;;;;6.60;85.30;;;5.54;69.39;102692.28;4999053;28;20072;-76
2023/02/10 11:01:33;;;;;;;;;;;6.60;85.40;;;5.59;69.43;102692.75;4992074;28;19929;-76
2023/02/10 11:04:07;;;;;;;;;;;6.70;85.70;;;5.61;69.59;102701.44;4992805;28;19926;-76
2023/02/10 11:06:36;;;;;;;;;;;6.70;85.30;;;5.60;69.12;102694.44;5002240;28;20154;-76
2023/02/10 11:09:06;;;;;;;;;;;6.70;85.20;;;5.59;68.99;102691.94;4999919;28;20519;-76
2023/02/10 11:11:34;;;;;;;;;;;6.70;85.00;;;5.55;68.85;102683.38;4992008;28;20020;-76
2023/02/10 11:14:04;;;;;;;;;;;6.70;85.10;;;5.59;68.76;102676.88;4992279;28;19933;-76
2023/02/10 11:16:40;;;;;;;;;;;6.70;85.00;;;5.61;68.43;102682.03;5001870;28;19925;-76
2023/02/10 11:19:18;;;;;;;;;;;6.70;84.80;;;5.63;68.59;102680.97;4997469;28;19936;-76
2023/02/10 11:21:45;;;;;;;;;;;6.70;84.70;;;5.63;68.42;102673.03;4985638;28;19930;-76
2023/02/10 11:24:19;;;;;;;;;;;6.70;84.60;;;5.68;68.60;102670.84;4991044;28;19930;-76
2023/02/10 11:26:55;;;;;;;;;;;6.70;84.70;;;5.69;67.75;102669.88;4996691;28;19929;-76
2023/02/10 11:29:23;;;;;;;;;;;6.70;84.20;;;5.68;68.02;102665.56;4991231;28;20432;-76
2023/02/10 11:31:52;;;;;;;;;;;6.80;84.30;;;5.68;68.19;102670.84;4991844;28;19937;-76
2023/02/10 11:34:22;;;;;;;;;;;6.80;84.30;;;5.71;67.80;102660.97;4975798;28;19939;-76
2023/02/10 11:36:51;;;;;;;;;;;6.80;83.90;;;5.73;68.07;102662.53;4987258;28;19930;-76
2023/02/10 11:39:21;;;;;;;;;;;6.80;84.00;;;5.74;67.96;102658.06;4990755;28;19933;-76
2023/02/10 11:41:49;;;;;;;;;;;6.80;84.10;;;5.75;67.93;102647.34;4974025;28;20022;-77